sensor_id;sensor_type;location;lat;lon;timestamp;P1;durP1;ratioP1;P2;durP2;ratioP2
79751;SDS011;69234;47.446;21.636;2023-12-14T00:00:30;25.43;;;24.80;;
79751;SDS011;69234;47.446;21.636;2023-12-14T00:01:01;25.17;;;24.50;;
79751;SDS011;69234;47.446;21.636;2023-12-14T00:01:32;24.83;;;24.13;;
79751;SDS011;69234;47.446;21.636;2023-12-14T00:02:03;25.47;;;24.83;;
79751;SDS011;69234;47.446;21.636;2023-12-14T00:02:34;25.67;;;24.83;;
79751;SDS011;69234;47.446;21.636;2023-12-14T00:03:05;25.83;;;25.00;;
79751;SDS011;69234;47.446;21.636;2023-12-14T00:03:36;24.93;;;24.13;;
79751;SDS011;69234;47.446;21.636;2023-12-14T00:04:07;23.63;;;23.03;;
79751;SDS011;69234;47.446;21.636;2023-12-14T00:04:38;24.47;;;23.73;;
79751;SDS011;69234;47.446;21.636;2023-12-14T00:05:11;25.33;;;24.53;;
79751;SDS011;69234;47.446;21.636;2023-12-14T00:05:42;25.90;;;25.00;;
79751;SDS011;69234;47.446;21.636;2023-12-14T00:06:13;27.10;;;26.30;;
79751;SDS011;69234;47.446;21.636;2023-12-14T00:06:44;26.47;;;25.73;;
79751;SDS011;69234;47.446;21.636;2023-12-14T00:07:15;27.33;;;26.43;;
79751;SDS011;69234;47.446;21.636;2023-12-14T00:07:46;27.40;;;26.53;;
79751;SDS011;69234;47.446;21.636;2023-12-14T00:08:17;26.57;;;25.67;;
79751;SDS011;69234;47.446;21.636;2023-12-14T00:08:48;26.07;;;25.23;;
79751;SDS011;69234;47.446;21.636;2023-12-14T00:09:19;26.60;;;25.63;;
79751;SDS011;69234;47.446;21.636;2023-12-14T00:09:50;27.97;;;26.90;;
79751;SDS011;69234;47.446;21.636;2023-12-14T00:10:21;28.43;;;27.40;;
79751;SDS011;69234;47.446;21.636;2023-12-14T00:10:52;28.50;;;27.53;;
79751;SDS011;69234;47.446;21.636;2023-12-14T00:11:23;28.83;;;27.97;;
79751;SDS011;69234;47.446;21.636;2023-12-14T00:11:54;28.87;;;28.13;;
79751;SDS011;69234;47.446;21.636;2023-12-14T00:12:25;27.87;;;27.27;;
79751;SDS011;69234;47.446;21.636;2023-12-14T00:12:56;29.17;;;28.30;;
79751;SDS011;69234;47.446;21.636;2023-12-14T00:13:27;29.70;;;28.80;;
79751;SDS011;69234;47.446;21.636;2023-12-14T00:13:58;30.00;;;28.80;;
79751;SDS011;69234;47.446;21.636;2023-12-14T00:14:29;29.20;;;27.90;;
79751;SDS011;69234;47.446;21.636;2023-12-14T00:15:00;30.33;;;28.93;;
79751;SDS011;69234;47.446;21.636;2023-12-14T00:15:30;29.13;;;27.87;;
79751;SDS011;69234;47.446;21.636;2023-12-14T00:16:01;28.87;;;27.67;;
79751;SDS011;69234;47.446;21.636;2023-12-14T00:16:32;28.93;;;27.93;;
79751;SDS011;69234;47.446;21.636;2023-12-14T00:17:03;28.10;;;27.23;;
79751;SDS011;69234;47.446;21.636;2023-12-14T00:17:34;28.63;;;27.87;;
79751;SDS011;69234;47.446;21.636;2023-12-14T00:18:05;29.10;;;28.23;;
79751;SDS011;69234;47.446;21.636;2023-12-14T00:18:36;29.30;;;28.40;;
79751;SDS011;69234;47.446;21.636;2023-12-14T00:19:07;30.27;;;29.10;;
79751;SDS011;69234;47.446;21.636;2023-12-14T00:19:38;30.73;;;29.37;;
79751;SDS011;69234;47.446;21.636;2023-12-14T00:20:09;30.67;;;29.30;;
79751;SDS011;69234;47.446;21.636;2023-12-14T00:20:41;31.67;;;30.60;;
79751;SDS011;69234;47.446;21.636;2023-12-14T00:21:11;31.93;;;30.67;;
79751;SDS011;69234;47.446;21.636;2023-12-14T00:21:42;32.77;;;31.30;;
79751;SDS011;69234;47.446;21.636;2023-12-14T00:22:14;33.10;;;31.80;;
79751;SDS011;69234;47.446;21.636;2023-12-14T00:22:45;32.60;;;31.40;;
79751;SDS011;69234;47.446;21.636;2023-12-14T00:23:16;30.67;;;29.57;;
79751;SDS011;69234;47.446;21.636;2023-12-14T00:23:46;32.13;;;31.20;;
79751;SDS011;69234;47.446;21.636;2023-12-14T00:24:17;32.63;;;31.73;;
79751;SDS011;69234;47.446;21.636;2023-12-14T00:24:48;31.53;;;30.40;;
79751;SDS011;69234;47.446;21.636;2023-12-14T00:25:19;32.23;;;31.23;;
79751;SDS011;69234;47.446;21.636;2023-12-14T00:25:50;31.87;;;31.00;;
79751;SDS011;69234;47.446;21.636;2023-12-14T00:26:21;32.30;;;31.33;;
79751;SDS011;69234;47.446;21.636;2023-12-14T00:26:52;33.47;;;32.03;;
79751;SDS011;69234;47.446;21.636;2023-12-14T00:27:23;33.27;;;31.77;;
79751;SDS011;69234;47.446;21.636;2023-12-14T00:27:54;35.20;;;33.53;;
79751;SDS011;69234;47.446;21.636;2023-12-14T00:28:25;35.20;;;33.53;;
79751;SDS011;69234;47.446;21.636;2023-12-14T00:28:55;33.33;;;32.00;;
79751;SDS011;69234;47.446;21.636;2023-12-14T00:29:27;33.83;;;32.70;;
79751;SDS011;69234;47.446;21.636;2023-12-14T00:29:57;34.70;;;33.40;;
79751;SDS011;69234;47.446;21.636;2023-12-14T00:30:28;34.03;;;32.83;;
79751;SDS011;69234;47.446;21.636;2023-12-14T00:30:59;33.57;;;32.50;;
79751;SDS011;69234;47.446;21.636;2023-12-14T00:31:30;33.50;;;32.27;;
79751;SDS011;69234;47.446;21.636;2023-12-14T00:32:01;34.33;;;33.20;;
79751;SDS011;69234;47.446;21.636;2023-12-14T00:32:32;34.83;;;33.50;;
79751;SDS011;69234;47.446;21.636;2023-12-14T00:33:03;34.37;;;33.03;;
79751;SDS011;69234;47.446;21.636;2023-12-14T00:33:34;34.47;;;32.90;;
79751;SDS011;69234;47.446;21.636;2023-12-14T00:34:05;34.97;;;33.33;;
79751;SDS011;69234;47.446;21.636;2023-12-14T00:34:36;34.93;;;33.73;;
79751;SDS011;69234;47.446;21.636;2023-12-14T00:35:07;33.63;;;32.87;;
79751;SDS011;69234;47.446;21.636;2023-12-14T00:35:38;34.87;;;33.90;;
79751;SDS011;69234;47.446;21.636;2023-12-14T00:36:09;35.73;;;34.43;;
79751;SDS011;69234;47.446;21.636;2023-12-14T00:36:40;35.27;;;33.90;;
79751;SDS011;69234;47.446;21.636;2023-12-14T00:37:11;35.60;;;34.37;;
79751;SDS011;69234;47.446;21.636;2023-12-14T00:37:42;35.00;;;33.93;;
79751;SDS011;69234;47.446;21.636;2023-12-14T00:38:13;36.43;;;35.40;;
79751;SDS011;69234;47.446;21.636;2023-12-14T00:38:44;35.17;;;34.20;;
79751;SDS011;69234;47.446;21.636;2023-12-14T00:39:16;35.50;;;34.57;;
79751;SDS011;69234;47.446;21.636;2023-12-14T00:39:47;36.60;;;35.57;;
79751;SDS011;69234;47.446;21.636;2023-12-14T00:40:18;35.67;;;34.60;;
79751;SDS011;69234;47.446;21.636;2023-12-14T00:40:49;37.37;;;35.97;;
79751;SDS011;69234;47.446;21.636;2023-12-14T00:41:20;38.43;;;36.50;;
79751;SDS011;69234;47.446;21.636;2023-12-14T00:41:51;38.57;;;37.00;;
79751;SDS011;69234;47.446;21.636;2023-12-14T00:42:22;39.07;;;37.70;;
79751;SDS011;69234;47.446;21.636;2023-12-14T00:42:52;39.93;;;38.70;;
79751;SDS011;69234;47.446;21.636;2023-12-14T00:43:23;39.60;;;38.30;;
79751;SDS011;69234;47.446;21.636;2023-12-14T00:43:54;41.63;;;39.90;;
79751;SDS011;69234;47.446;21.636;2023-12-14T00:44:25;39.47;;;38.20;;
79751;SDS011;69234;47.446;21.636;2023-12-14T00:44:56;40.40;;;39.20;;
79751;SDS011;69234;47.446;21.636;2023-12-14T00:45:27;41.50;;;40.00;;
79751;SDS011;69234;47.446;21.636;2023-12-14T00:45:58;40.10;;;38.50;;
79751;SDS011;69234;47.446;21.636;2023-12-14T00:46:29;39.80;;;38.30;;
79751;SDS011;69234;47.446;21.636;2023-12-14T00:47:00;40.87;;;39.30;;
79751;SDS011;69234;47.446;21.636;2023-12-14T00:47:30;41.00;;;39.50;;
79751;SDS011;69234;47.446;21.636;2023-12-14T00:48:01;39.43;;;38.13;;
79751;SDS011;69234;47.446;21.636;2023-12-14T00:48:32;40.67;;;39.03;;
79751;SDS011;69234;47.446;21.636;2023-12-14T00:49:03;39.40;;;37.97;;
79751;SDS011;69234;47.446;21.636;2023-12-14T00:49:34;40.23;;;38.87;;
79751;SDS011;69234;47.446;21.636;2023-12-14T00:50:05;39.50;;;38.27;;
79751;SDS011;69234;47.446;21.636;2023-12-14T00:50:36;40.57;;;39.00;;
79751;SDS011;69234;47.446;21.636;2023-12-14T00:51:07;40.90;;;39.30;;
79751;SDS011;69234;47.446;21.636;2023-12-14T00:51:38;41.57;;;40.20;;
79751;SDS011;69234;47.446;21.636;2023-12-14T00:52:10;39.93;;;38.53;;
79751;SDS011;69234;47.446;21.636;2023-12-14T00:52:41;40.70;;;39.03;;
79751;SDS011;69234;47.446;21.636;2023-12-14T00:53:12;40.33;;;38.90;;
79751;SDS011;69234;47.446;21.636;2023-12-14T00:53:43;39.07;;;37.53;;
79751;SDS011;69234;47.446;21.636;2023-12-14T00:54:14;39.47;;;37.97;;
79751;SDS011;69234;47.446;21.636;2023-12-14T00:54:45;41.10;;;39.63;;
79751;SDS011;69234;47.446;21.636;2023-12-14T00:55:15;39.50;;;38.27;;
79751;SDS011;69234;47.446;21.636;2023-12-14T00:55:46;39.10;;;38.10;;
79751;SDS011;69234;47.446;21.636;2023-12-14T00:56:18;39.17;;;38.17;;
79751;SDS011;69234;47.446;21.636;2023-12-14T00:56:49;37.47;;;36.37;;
79751;SDS011;69234;47.446;21.636;2023-12-14T00:57:20;38.57;;;37.13;;
79751;SDS011;69234;47.446;21.636;2023-12-14T00:57:50;38.37;;;36.67;;
79751;SDS011;69234;47.446;21.636;2023-12-14T00:58:22;39.23;;;37.33;;
79751;SDS011;69234;47.446;21.636;2023-12-14T00:58:53;38.00;;;36.77;;
79751;SDS011;69234;47.446;21.636;2023-12-14T00:59:24;37.47;;;36.13;;
79751;SDS011;69234;47.446;21.636;2023-12-14T00:59:54;35.30;;;33.90;;
79751;SDS011;69234;47.446;21.636;2023-12-14T01:00:25;37.03;;;35.57;;
79751;SDS011;69234;47.446;21.636;2023-12-14T01:00:56;36.87;;;35.67;;
79751;SDS011;69234;47.446;21.636;2023-12-14T01:01:27;36.77;;;35.60;;
79751;SDS011;69234;47.446;21.636;2023-12-14T01:01:58;36.67;;;35.43;;
79751;SDS011;69234;47.446;21.636;2023-12-14T01:02:29;36.83;;;35.27;;
79751;SDS011;69234;47.446;21.636;2023-12-14T01:03:00;36.17;;;34.90;;
79751;SDS011;69234;47.446;21.636;2023-12-14T01:03:31;35.80;;;34.77;;
79751;SDS011;69234;47.446;21.636;2023-12-14T01:04:02;36.83;;;35.73;;
79751;SDS011;69234;47.446;21.636;2023-12-14T01:04:34;36.47;;;35.23;;
79751;SDS011;69234;47.446;21.636;2023-12-14T01:05:05;36.00;;;34.60;;
79751;SDS011;69234;47.446;21.636;2023-12-14T01:05:37;36.20;;;34.50;;
79751;SDS011;69234;47.446;21.636;2023-12-14T01:06:08;35.20;;;33.63;;
79751;SDS011;69234;47.446;21.636;2023-12-14T01:06:39;34.97;;;33.73;;
79751;SDS011;69234;47.446;21.636;2023-12-14T01:07:09;35.73;;;34.60;;
79751;SDS011;69234;47.446;21.636;2023-12-14T01:07:40;35.10;;;34.00;;
79751;SDS011;69234;47.446;21.636;2023-12-14T01:08:11;35.90;;;34.90;;
79751;SDS011;69234;47.446;21.636;2023-12-14T01:08:42;36.37;;;35.10;;
79751;SDS011;69234;47.446;21.636;2023-12-14T01:09:13;37.20;;;35.83;;
79751;SDS011;69234;47.446;21.636;2023-12-14T01:09:44;37.10;;;35.73;;
79751;SDS011;69234;47.446;21.636;2023-12-14T01:10:15;35.50;;;34.27;;
79751;SDS011;69234;47.446;21.636;2023-12-14T01:10:46;35.10;;;33.80;;
79751;SDS011;69234;47.446;21.636;2023-12-14T01:11:17;33.63;;;32.53;;
79751;SDS011;69234;47.446;21.636;2023-12-14T01:11:48;35.03;;;34.00;;
79751;SDS011;69234;47.446;21.636;2023-12-14T01:12:18;35.27;;;34.10;;
79751;SDS011;69234;47.446;21.636;2023-12-14T01:12:49;36.87;;;35.77;;
79751;SDS011;69234;47.446;21.636;2023-12-14T01:13:20;36.80;;;35.60;;
79751;SDS011;69234;47.446;21.636;2023-12-14T01:13:51;36.33;;;35.33;;
79751;SDS011;69234;47.446;21.636;2023-12-14T01:14:22;36.20;;;35.23;;
79751;SDS011;69234;47.446;21.636;2023-12-14T01:14:53;37.57;;;36.43;;
79751;SDS011;69234;47.446;21.636;2023-12-14T01:15:24;36.87;;;35.50;;
79751;SDS011;69234;47.446;21.636;2023-12-14T01:15:55;35.97;;;34.87;;
79751;SDS011;69234;47.446;21.636;2023-12-14T01:16:26;36.60;;;35.30;;
79751;SDS011;69234;47.446;21.636;2023-12-14T01:16:57;37.27;;;35.93;;
79751;SDS011;69234;47.446;21.636;2023-12-14T01:17:28;36.53;;;35.43;;
79751;SDS011;69234;47.446;21.636;2023-12-14T01:17:59;36.10;;;35.17;;
79751;SDS011;69234;47.446;21.636;2023-12-14T01:18:30;38.07;;;37.13;;
79751;SDS011;69234;47.446;21.636;2023-12-14T01:19:01;37.63;;;36.50;;
79751;SDS011;69234;47.446;21.636;2023-12-14T01:19:32;38.10;;;36.77;;
79751;SDS011;69234;47.446;21.636;2023-12-14T01:20:05;38.33;;;37.07;;
79751;SDS011;69234;47.446;21.636;2023-12-14T01:20:39;37.47;;;36.47;;
79751;SDS011;69234;47.446;21.636;2023-12-14T01:21:10;36.10;;;34.97;;
79751;SDS011;69234;47.446;21.636;2023-12-14T01:21:41;38.13;;;36.67;;
79751;SDS011;69234;47.446;21.636;2023-12-14T01:22:12;38.07;;;36.73;;
79751;SDS011;69234;47.446;21.636;2023-12-14T01:22:43;37.17;;;35.77;;
79751;SDS011;69234;47.446;21.636;2023-12-14T01:23:14;36.40;;;34.93;;
79751;SDS011;69234;47.446;21.636;2023-12-14T01:23:45;36.60;;;34.97;;
79751;SDS011;69234;47.446;21.636;2023-12-14T01:24:16;37.80;;;36.30;;
79751;SDS011;69234;47.446;21.636;2023-12-14T01:24:47;37.17;;;35.87;;
79751;SDS011;69234;47.446;21.636;2023-12-14T01:25:18;37.30;;;36.03;;
79751;SDS011;69234;47.446;21.636;2023-12-14T01:25:49;35.57;;;34.53;;
79751;SDS011;69234;47.446;21.636;2023-12-14T01:26:20;36.60;;;35.20;;
79751;SDS011;69234;47.446;21.636;2023-12-14T01:26:51;36.50;;;35.30;;
79751;SDS011;69234;47.446;21.636;2023-12-14T01:27:21;36.57;;;35.50;;
79751;SDS011;69234;47.446;21.636;2023-12-14T01:27:52;36.80;;;35.63;;
79751;SDS011;69234;47.446;21.636;2023-12-14T01:28:23;38.07;;;36.93;;
79751;SDS011;69234;47.446;21.636;2023-12-14T01:28:54;37.77;;;36.47;;
79751;SDS011;69234;47.446;21.636;2023-12-14T01:29:25;37.20;;;36.03;;
79751;SDS011;69234;47.446;21.636;2023-12-14T01:29:56;37.67;;;36.77;;
79751;SDS011;69234;47.446;21.636;2023-12-14T01:30:27;38.53;;;37.27;;
79751;SDS011;69234;47.446;21.636;2023-12-14T01:30:58;38.50;;;37.23;;
79751;SDS011;69234;47.446;21.636;2023-12-14T01:31:29;39.10;;;37.87;;
79751;SDS011;69234;47.446;21.636;2023-12-14T01:32:00;37.40;;;36.30;;
79751;SDS011;69234;47.446;21.636;2023-12-14T01:32:31;38.50;;;37.40;;
79751;SDS011;69234;47.446;21.636;2023-12-14T01:33:02;39.17;;;38.17;;
79751;SDS011;69234;47.446;21.636;2023-12-14T01:33:33;38.50;;;37.47;;
79751;SDS011;69234;47.446;21.636;2023-12-14T01:34:03;37.50;;;36.60;;
79751;SDS011;69234;47.446;21.636;2023-12-14T01:34:34;36.90;;;36.03;;
79751;SDS011;69234;47.446;21.636;2023-12-14T01:35:05;36.77;;;35.83;;
79751;SDS011;69234;47.446;21.636;2023-12-14T01:35:36;37.20;;;36.37;;
79751;SDS011;69234;47.446;21.636;2023-12-14T01:36:07;37.80;;;36.90;;
79751;SDS011;69234;47.446;21.636;2023-12-14T01:36:39;39.37;;;38.20;;
79751;SDS011;69234;47.446;21.636;2023-12-14T01:37:10;39.23;;;38.07;;
79751;SDS011;69234;47.446;21.636;2023-12-14T01:37:41;38.23;;;37.10;;
79751;SDS011;69234;47.446;21.636;2023-12-14T01:38:11;38.53;;;37.20;;
79751;SDS011;69234;47.446;21.636;2023-12-14T01:38:42;39.30;;;37.97;;
79751;SDS011;69234;47.446;21.636;2023-12-14T01:39:13;39.60;;;38.20;;
79751;SDS011;69234;47.446;21.636;2023-12-14T01:39:44;37.60;;;36.47;;
79751;SDS011;69234;47.446;21.636;2023-12-14T01:40:16;38.33;;;37.33;;
79751;SDS011;69234;47.446;21.636;2023-12-14T01:40:50;38.20;;;37.30;;
79751;SDS011;69234;47.446;21.636;2023-12-14T01:41:21;40.63;;;39.30;;
79751;SDS011;69234;47.446;21.636;2023-12-14T01:41:52;40.10;;;38.83;;
79751;SDS011;69234;47.446;21.636;2023-12-14T01:42:23;38.90;;;37.80;;
79751;SDS011;69234;47.446;21.636;2023-12-14T01:42:54;39.00;;;37.93;;
79751;SDS011;69234;47.446;21.636;2023-12-14T01:43:38;38.40;;;37.33;;
79751;SDS011;69234;47.446;21.636;2023-12-14T01:44:09;39.30;;;38.13;;
79751;SDS011;69234;47.446;21.636;2023-12-14T01:44:40;39.97;;;38.90;;
79751;SDS011;69234;47.446;21.636;2023-12-14T01:45:11;40.20;;;39.07;;
79751;SDS011;69234;47.446;21.636;2023-12-14T01:45:45;39.17;;;37.73;;
79751;SDS011;69234;47.446;21.636;2023-12-14T01:46:16;39.10;;;37.60;;
79751;SDS011;69234;47.446;21.636;2023-12-14T01:46:47;38.57;;;37.27;;
79751;SDS011;69234;47.446;21.636;2023-12-14T01:47:18;38.57;;;37.47;;
79751;SDS011;69234;47.446;21.636;2023-12-14T01:47:49;38.63;;;37.63;;
79751;SDS011;69234;47.446;21.636;2023-12-14T01:48:19;38.63;;;37.37;;
79751;SDS011;69234;47.446;21.636;2023-12-14T01:48:51;39.43;;;38.37;;
79751;SDS011;69234;47.446;21.636;2023-12-14T01:49:23;38.43;;;37.27;;
79751;SDS011;69234;47.446;21.636;2023-12-14T01:49:54;38.67;;;37.50;;
79751;SDS011;69234;47.446;21.636;2023-12-14T01:50:25;37.40;;;36.50;;
79751;SDS011;69234;47.446;21.636;2023-12-14T01:50:55;37.83;;;36.87;;
79751;SDS011;69234;47.446;21.636;2023-12-14T01:51:26;37.50;;;36.77;;
79751;SDS011;69234;47.446;21.636;2023-12-14T01:51:57;37.63;;;36.80;;
79751;SDS011;69234;47.446;21.636;2023-12-14T01:52:28;38.53;;;37.27;;
79751;SDS011;69234;47.446;21.636;2023-12-14T01:52:59;39.07;;;37.83;;
79751;SDS011;69234;47.446;21.636;2023-12-14T01:53:30;38.90;;;37.87;;
79751;SDS011;69234;47.446;21.636;2023-12-14T01:54:01;39.13;;;38.13;;
79751;SDS011;69234;47.446;21.636;2023-12-14T01:54:32;37.83;;;36.70;;
79751;SDS011;69234;47.446;21.636;2023-12-14T01:55:04;37.13;;;36.27;;
79751;SDS011;69234;47.446;21.636;2023-12-14T01:55:35;37.87;;;36.87;;
79751;SDS011;69234;47.446;21.636;2023-12-14T01:56:06;37.13;;;36.10;;
79751;SDS011;69234;47.446;21.636;2023-12-14T01:56:38;37.57;;;36.50;;
79751;SDS011;69234;47.446;21.636;2023-12-14T01:57:10;36.67;;;35.70;;
79751;SDS011;69234;47.446;21.636;2023-12-14T01:57:41;36.57;;;35.83;;
79751;SDS011;69234;47.446;21.636;2023-12-14T01:58:12;35.13;;;34.47;;
79751;SDS011;69234;47.446;21.636;2023-12-14T01:58:42;35.23;;;34.53;;
79751;SDS011;69234;47.446;21.636;2023-12-14T01:59:13;36.43;;;35.70;;
79751;SDS011;69234;47.446;21.636;2023-12-14T01:59:44;35.83;;;35.13;;
79751;SDS011;69234;47.446;21.636;2023-12-14T02:00:19;36.40;;;35.37;;
79751;SDS011;69234;47.446;21.636;2023-12-14T02:01:57;34.37;;;33.13;;
79751;SDS011;69234;47.446;21.636;2023-12-14T02:02:29;33.80;;;32.83;;
79751;SDS011;69234;47.446;21.636;2023-12-14T02:03:00;35.30;;;34.13;;
79751;SDS011;69234;47.446;21.636;2023-12-14T02:03:31;35.83;;;34.53;;
79751;SDS011;69234;47.446;21.636;2023-12-14T02:04:02;36.23;;;35.07;;
79751;SDS011;69234;47.446;21.636;2023-12-14T02:04:36;35.57;;;34.70;;
79751;SDS011;69234;47.446;21.636;2023-12-14T02:05:07;35.33;;;34.30;;
79751;SDS011;69234;47.446;21.636;2023-12-14T02:05:38;36.90;;;35.50;;
79751;SDS011;69234;47.446;21.636;2023-12-14T02:06:09;36.77;;;35.43;;
79751;SDS011;69234;47.446;21.636;2023-12-14T02:06:40;36.60;;;35.27;;
79751;SDS011;69234;47.446;21.636;2023-12-14T02:07:11;36.93;;;35.53;;
79751;SDS011;69234;47.446;21.636;2023-12-14T02:07:42;36.60;;;35.33;;
79751;SDS011;69234;47.446;21.636;2023-12-14T02:08:13;36.13;;;35.03;;
79751;SDS011;69234;47.446;21.636;2023-12-14T02:08:44;35.60;;;34.60;;
79751;SDS011;69234;47.446;21.636;2023-12-14T02:09:15;36.40;;;35.43;;
79751;SDS011;69234;47.446;21.636;2023-12-14T02:09:46;36.27;;;35.33;;
79751;SDS011;69234;47.446;21.636;2023-12-14T02:10:17;37.67;;;36.63;;
79751;SDS011;69234;47.446;21.636;2023-12-14T02:10:48;38.63;;;37.43;;
79751;SDS011;69234;47.446;21.636;2023-12-14T02:11:19;40.00;;;38.70;;
79751;SDS011;69234;47.446;21.636;2023-12-14T02:11:50;40.03;;;38.87;;
79751;SDS011;69234;47.446;21.636;2023-12-14T02:12:21;39.37;;;38.23;;
79751;SDS011;69234;47.446;21.636;2023-12-14T02:12:52;41.33;;;40.13;;
79751;SDS011;69234;47.446;21.636;2023-12-14T02:13:23;44.10;;;42.83;;
79751;SDS011;69234;47.446;21.636;2023-12-14T02:13:54;45.00;;;43.50;;
79751;SDS011;69234;47.446;21.636;2023-12-14T02:14:25;47.50;;;46.17;;
79751;SDS011;69234;47.446;21.636;2023-12-14T02:14:56;46.93;;;45.60;;
79751;SDS011;69234;47.446;21.636;2023-12-14T02:15:27;49.03;;;47.60;;
79751;SDS011;69234;47.446;21.636;2023-12-14T02:15:58;46.67;;;45.40;;
79751;SDS011;69234;47.446;21.636;2023-12-14T02:16:29;43.90;;;42.77;;
79751;SDS011;69234;47.446;21.636;2023-12-14T02:17:01;43.07;;;41.87;;
79751;SDS011;69234;47.446;21.636;2023-12-14T02:17:32;44.17;;;42.70;;
79751;SDS011;69234;47.446;21.636;2023-12-14T02:18:04;45.23;;;43.97;;
79751;SDS011;69234;47.446;21.636;2023-12-14T02:18:35;49.00;;;47.60;;
79751;SDS011;69234;47.446;21.636;2023-12-14T02:19:07;58.67;;;56.40;;
79751;SDS011;69234;47.446;21.636;2023-12-14T02:19:38;57.03;;;55.03;;
79751;SDS011;69234;47.446;21.636;2023-12-14T02:20:09;68.93;;;66.40;;
79751;SDS011;69234;47.446;21.636;2023-12-14T02:20:40;78.07;;;73.93;;
79751;SDS011;69234;47.446;21.636;2023-12-14T02:21:11;73.20;;;69.63;;
79751;SDS011;69234;47.446;21.636;2023-12-14T02:21:42;65.23;;;62.60;;
79751;SDS011;69234;47.446;21.636;2023-12-14T02:22:13;63.27;;;60.77;;
79751;SDS011;69234;47.446;21.636;2023-12-14T02:22:55;70.53;;;67.20;;
79751;SDS011;69234;47.446;21.636;2023-12-14T02:23:26;49.67;;;47.63;;
79751;SDS011;69234;47.446;21.636;2023-12-14T02:23:57;40.70;;;39.33;;
79751;SDS011;69234;47.446;21.636;2023-12-14T02:24:28;39.17;;;38.13;;
79751;SDS011;69234;47.446;21.636;2023-12-14T02:24:59;39.20;;;37.93;;
79751;SDS011;69234;47.446;21.636;2023-12-14T02:25:30;38.63;;;37.33;;
79751;SDS011;69234;47.446;21.636;2023-12-14T02:26:01;37.10;;;35.97;;
79751;SDS011;69234;47.446;21.636;2023-12-14T02:26:32;38.00;;;36.67;;
79751;SDS011;69234;47.446;21.636;2023-12-14T02:27:03;38.47;;;37.17;;
79751;SDS011;69234;47.446;21.636;2023-12-14T02:27:34;36.57;;;35.53;;
79751;SDS011;69234;47.446;21.636;2023-12-14T02:28:05;36.13;;;34.93;;
79751;SDS011;69234;47.446;21.636;2023-12-14T02:28:36;35.97;;;34.83;;
79751;SDS011;69234;47.446;21.636;2023-12-14T02:29:07;36.20;;;35.20;;
79751;SDS011;69234;47.446;21.636;2023-12-14T02:29:37;35.03;;;34.13;;
79751;SDS011;69234;47.446;21.636;2023-12-14T02:30:11;35.03;;;34.03;;
79751;SDS011;69234;47.446;21.636;2023-12-14T02:30:42;35.07;;;34.07;;
79751;SDS011;69234;47.446;21.636;2023-12-14T02:31:14;34.77;;;34.03;;
79751;SDS011;69234;47.446;21.636;2023-12-14T02:31:46;35.63;;;34.83;;
79751;SDS011;69234;47.446;21.636;2023-12-14T02:32:17;34.90;;;34.17;;
79751;SDS011;69234;47.446;21.636;2023-12-14T02:32:48;35.07;;;34.17;;
79751;SDS011;69234;47.446;21.636;2023-12-14T02:33:19;35.80;;;34.83;;
79751;SDS011;69234;47.446;21.636;2023-12-14T02:33:50;35.73;;;34.77;;
79751;SDS011;69234;47.446;21.636;2023-12-14T02:34:21;34.87;;;33.83;;
79751;SDS011;69234;47.446;21.636;2023-12-14T02:34:52;35.53;;;34.20;;
79751;SDS011;69234;47.446;21.636;2023-12-14T02:35:23;37.30;;;35.83;;
79751;SDS011;69234;47.446;21.636;2023-12-14T02:35:54;35.33;;;34.03;;
79751;SDS011;69234;47.446;21.636;2023-12-14T02:36:25;36.37;;;35.33;;
79751;SDS011;69234;47.446;21.636;2023-12-14T02:36:56;36.27;;;34.97;;
79751;SDS011;69234;47.446;21.636;2023-12-14T02:37:27;34.80;;;33.73;;
79751;SDS011;69234;47.446;21.636;2023-12-14T02:37:58;35.80;;;34.67;;
79751;SDS011;69234;47.446;21.636;2023-12-14T02:38:29;36.13;;;34.97;;
79751;SDS011;69234;47.446;21.636;2023-12-14T02:39:00;35.93;;;34.53;;
79751;SDS011;69234;47.446;21.636;2023-12-14T02:39:31;35.47;;;34.50;;
79751;SDS011;69234;47.446;21.636;2023-12-14T02:40:02;36.53;;;35.73;;
79751;SDS011;69234;47.446;21.636;2023-12-14T02:40:34;35.53;;;34.70;;
79751;SDS011;69234;47.446;21.636;2023-12-14T02:41:05;36.23;;;35.37;;
79751;SDS011;69234;47.446;21.636;2023-12-14T02:41:37;35.87;;;34.87;;
79751;SDS011;69234;47.446;21.636;2023-12-14T02:42:08;35.80;;;34.70;;
79751;SDS011;69234;47.446;21.636;2023-12-14T02:42:39;36.80;;;35.37;;
79751;SDS011;69234;47.446;21.636;2023-12-14T02:43:10;37.40;;;35.87;;
79751;SDS011;69234;47.446;21.636;2023-12-14T02:43:41;36.23;;;35.20;;
79751;SDS011;69234;47.446;21.636;2023-12-14T02:44:12;36.20;;;35.27;;
79751;SDS011;69234;47.446;21.636;2023-12-14T02:44:43;36.60;;;35.27;;
79751;SDS011;69234;47.446;21.636;2023-12-14T02:45:14;35.83;;;34.37;;
79751;SDS011;69234;47.446;21.636;2023-12-14T02:45:45;37.17;;;35.63;;
79751;SDS011;69234;47.446;21.636;2023-12-14T02:46:16;36.73;;;35.23;;
79751;SDS011;69234;47.446;21.636;2023-12-14T02:46:48;34.13;;;32.77;;
79751;SDS011;69234;47.446;21.636;2023-12-14T02:47:19;37.00;;;35.57;;
79751;SDS011;69234;47.446;21.636;2023-12-14T02:47:50;36.83;;;35.13;;
79751;SDS011;69234;47.446;21.636;2023-12-14T02:48:22;36.10;;;34.80;;
79751;SDS011;69234;47.446;21.636;2023-12-14T02:48:53;37.07;;;35.73;;
79751;SDS011;69234;47.446;21.636;2023-12-14T02:49:24;36.00;;;34.97;;
79751;SDS011;69234;47.446;21.636;2023-12-14T02:49:55;35.53;;;34.83;;
79751;SDS011;69234;47.446;21.636;2023-12-14T02:50:26;35.83;;;35.00;;
79751;SDS011;69234;47.446;21.636;2023-12-14T02:50:57;35.13;;;34.43;;
79751;SDS011;69234;47.446;21.636;2023-12-14T02:51:30;35.87;;;35.13;;
79751;SDS011;69234;47.446;21.636;2023-12-14T02:52:01;35.90;;;34.87;;
79751;SDS011;69234;47.446;21.636;2023-12-14T02:52:32;36.07;;;35.07;;
79751;SDS011;69234;47.446;21.636;2023-12-14T02:53:03;36.23;;;34.90;;
79751;SDS011;69234;47.446;21.636;2023-12-14T02:53:34;37.07;;;35.83;;
79751;SDS011;69234;47.446;21.636;2023-12-14T02:54:04;35.50;;;34.43;;
79751;SDS011;69234;47.446;21.636;2023-12-14T02:54:37;35.53;;;34.63;;
79751;SDS011;69234;47.446;21.636;2023-12-14T02:55:09;35.47;;;34.67;;
79751;SDS011;69234;47.446;21.636;2023-12-14T02:55:40;35.87;;;35.00;;
79751;SDS011;69234;47.446;21.636;2023-12-14T02:56:11;37.17;;;36.10;;
79751;SDS011;69234;47.446;21.636;2023-12-14T02:56:42;36.33;;;35.13;;
79751;SDS011;69234;47.446;21.636;2023-12-14T02:57:13;37.00;;;35.80;;
79751;SDS011;69234;47.446;21.636;2023-12-14T02:57:44;36.40;;;35.33;;
79751;SDS011;69234;47.446;21.636;2023-12-14T02:58:15;35.73;;;34.60;;
79751;SDS011;69234;47.446;21.636;2023-12-14T02:58:46;36.20;;;35.07;;
79751;SDS011;69234;47.446;21.636;2023-12-14T02:59:21;36.83;;;35.73;;
79751;SDS011;69234;47.446;21.636;2023-12-14T02:59:52;36.13;;;35.00;;
79751;SDS011;69234;47.446;21.636;2023-12-14T03:00:23;35.57;;;34.57;;
79751;SDS011;69234;47.446;21.636;2023-12-14T03:00:54;36.13;;;35.30;;